createdAt,value
2023-05-05T00:01:35.328Z,45.28
2023-05-05T00:04:02.517Z,45.18
2023-05-05T00:06:29.651Z,44.77
2023-05-05T00:08:56.621Z,44.88
2023-05-05T00:11:23.733Z,45.30
2023-05-05T00:13:51.432Z,45.41
2023-05-05T00:16:18.519Z,45.05
2023-05-05T00:18:45.544Z,45.44
2023-05-05T00:21:13.364Z,45.24
2023-05-05T00:23:40.411Z,45.54
2023-05-05T00:26:07.383Z,45.23
2023-05-05T00:28:34.576Z,45.66
2023-05-05T00:31:01.772Z,45.58
2023-05-05T00:33:29.056Z,45.56
2023-05-05T00:35:56.133Z,45.79
2023-05-05T00:38:23.433Z,45.75
2023-05-05T00:40:50.517Z,45.59
2023-05-05T00:43:17.679Z,45.35
2023-05-05T00:45:47.571Z,45.26
2023-05-05T00:48:16.946Z,45.51
2023-05-05T00:50:45.103Z,45.28
2023-05-05T00:53:12.354Z,45.03
2023-05-05T00:55:39.431Z,44.93
2023-05-05T00:58:06.458Z,44.75
2023-05-05T01:00:33.542Z,44.81
2023-05-05T01:03:00.699Z,45.17
2023-05-05T01:05:38.563Z,44.77
2023-05-05T01:08:27.128Z,44.94
2023-05-05T01:11:03.970Z,45.11
2023-05-05T01:13:48.912Z,45.45
2023-05-05T01:16:25.768Z,45.16
2023-05-05T01:19:20.019Z,45.16
2023-05-05T01:22:00.795Z,45.17
2023-05-05T01:25:11.369Z,45.23
2023-05-05T01:27:50.163Z,45.17
2023-05-05T01:30:50.290Z,45.52
2023-05-05T01:33:26.129Z,45.19
2023-05-05T01:35:58.093Z,45.25
2023-05-05T01:38:40.325Z,45.83
2023-05-05T01:41:19.598Z,45.31
2023-05-05T01:43:50.301Z,45.56
2023-05-05T01:46:19.365Z,45.83
2023-05-05T01:48:49.070Z,45.65
2023-05-05T01:51:18.267Z,45.80
2023-05-05T01:53:47.360Z,45.82
2023-05-05T01:56:15.450Z,45.90
2023-05-05T01:58:45.078Z,45.87
2023-05-05T02:01:13.510Z,46.20
2023-05-05T02:03:41.976Z,46.32
2023-05-05T02:06:10.373Z,46.05
2023-05-05T02:08:39.474Z,45.99
2023-05-05T02:11:09.865Z,46.04
2023-05-05T02:13:39.781Z,46.48
2023-05-05T02:16:08.496Z,46.03
2023-05-05T02:18:37.060Z,46.20
2023-05-05T02:21:04.770Z,46.19
2023-05-05T02:23:32.696Z,45.95
2023-05-05T02:26:07.933Z,45.81
2023-05-05T02:28:52.958Z,45.69
2023-05-05T02:31:23.050Z,46.28
2023-05-05T02:33:53.565Z,46.00
2023-05-05T02:36:23.076Z,46.01
2023-05-05T02:39:01.218Z,46.00
2023-05-05T02:41:33.343Z,46.16
2023-05-05T02:44:05.454Z,46.29
2023-05-05T02:46:34.744Z,46.10
2023-05-05T02:49:02.054Z,46.45
2023-05-05T02:51:29.195Z,46.65
2023-05-05T02:54:00.917Z,46.78
2023-05-05T02:56:47.871Z,46.41
2023-05-05T02:59:50.879Z,46.25
2023-05-05T03:02:35.857Z,46.19
2023-05-05T03:05:11.588Z,46.53
2023-05-05T03:08:04.623Z,45.96
2023-05-05T03:10:47.057Z,46.04
2023-05-05T03:13:18.025Z,46.15
2023-05-05T03:15:53.439Z,45.83
2023-05-05T03:18:25.576Z,45.84
2023-05-05T03:21:08.413Z,45.77
2023-05-05T03:23:37.707Z,46.46
2023-05-05T03:26:09.457Z,46.08
2023-05-05T03:28:40.721Z,46.23
2023-05-05T03:31:16.009Z,45.93
2023-05-05T03:33:43.047Z,46.16
2023-05-05T03:36:10.642Z,46.31
2023-05-05T03:38:39.557Z,46.58
2023-05-05T03:41:06.560Z,46.33
2023-05-05T03:43:33.919Z,46.82
2023-05-05T03:46:01.346Z,46.45
2023-05-05T03:48:29.086Z,46.61
2023-05-05T03:50:56.204Z,46.68
2023-05-05T03:53:25.304Z,46.61
2023-05-05T03:55:52.844Z,46.71
2023-05-05T03:58:19.866Z,46.53
2023-05-05T04:00:46.885Z,47.05
2023-05-05T04:03:13.921Z,46.89
2023-05-05T04:05:41.045Z,46.70
2023-05-05T04:08:08.015Z,46.78
2023-05-05T04:10:35.609Z,46.56
2023-05-05T04:13:02.949Z,46.82
2023-05-05T04:15:31.846Z,46.92
2023-05-05T04:17:58.887Z,47.13
2023-05-05T04:20:27.488Z,46.53
2023-05-05T04:22:56.362Z,46.91
2023-05-05T04:25:24.197Z,46.95
2023-05-05T04:27:51.226Z,47.04
2023-05-05T04:30:18.215Z,47.15
2023-05-05T04:32:46.091Z,46.75
2023-05-05T04:35:13.500Z,46.73
2023-05-05T04:37:40.692Z,47.06
2023-05-05T04:40:09.518Z,47.45
2023-05-05T04:42:38.413Z,46.89
2023-05-05T04:45:06.789Z,47.36
2023-05-05T04:47:41.132Z,47.38
2023-05-05T04:50:09.707Z,47.33
2023-05-05T04:52:36.876Z,47.24
2023-05-05T04:55:04.710Z,47.04
2023-05-05T04:57:33.163Z,47.25
2023-05-05T05:00:01.468Z,47.15
2023-05-05T05:02:28.600Z,47.35
2023-05-05T05:04:55.562Z,47.45
2023-05-05T05:07:22.818Z,47.49
2023-05-05T05:09:50.897Z,47.13
2023-05-05T05:12:18.168Z,47.09
2023-05-05T05:14:45.278Z,47.00
2023-05-05T05:17:12.757Z,47.05
2023-05-05T05:19:39.671Z,47.09
2023-05-05T05:22:06.937Z,47.52
2023-05-05T05:24:38.094Z,47.41
2023-05-05T05:27:09.848Z,46.94
2023-05-05T05:29:37.801Z,46.56
